sensor_id;sensor_type;location;lat;lon;timestamp;temperature;humidity
573;DHT22;271;51.114;13.780;2023-06-10T00:37:23;17.60;36.80
573;DHT22;271;51.114;13.780;2023-06-10T00:40:21;17.50;36.10
573;DHT22;271;51.114;13.780;2023-06-10T00:43:09;17.50;36.00
573;DHT22;271;51.114;13.780;2023-06-10T00:45:59;17.60;33.70
573;DHT22;271;51.114;13.780;2023-06-10T00:48:55;17.50;31.40
573;DHT22;271;51.114;13.780;2023-06-10T00:51:58;17.50;29.40
573;DHT22;271;51.114;13.780;2023-06-10T00:54:47;17.40;28.60
573;DHT22;271;51.114;13.780;2023-06-10T00:57:36;17.40;28.80
573;DHT22;271;51.114;13.780;2023-06-10T01:00:25;17.30;25.20
573;DHT22;271;51.114;13.780;2023-06-10T01:03:14;17.30;19.00
573;DHT22;271;51.114;13.780;2023-06-10T01:06:09;17.20;19.10
573;DHT22;271;51.114;13.780;2023-06-10T01:09:05;17.10;15.90
573;DHT22;271;51.114;13.780;2023-06-10T01:11:59;17.10;17.20
573;DHT22;271;51.114;13.780;2023-06-10T01:14:55;17.00;15.90
573;DHT22;271;51.114;13.780;2023-06-10T01:17:57;16.80;17.00
573;DHT22;271;51.114;13.780;2023-06-10T01:20:45;16.90;16.20
573;DHT22;271;51.114;13.780;2023-06-10T01:23:36;16.80;14.80
573;DHT22;271;51.114;13.780;2023-06-10T01:26:29;16.70;16.50
573;DHT22;271;51.114;13.780;2023-06-10T01:29:19;16.50;18.70
573;DHT22;271;51.114;13.780;2023-06-10T01:32:16;16.40;18.80
573;DHT22;271;51.114;13.780;2023-06-10T01:35:05;16.40;17.80
573;DHT22;271;51.114;13.780;2023-06-10T01:37:57;16.20;13.20
573;DHT22;271;51.114;13.780;2023-06-10T01:40:50;16.10;13.50
573;DHT22;271;51.114;13.780;2023-06-10T01:43:48;16.10;17.00
573;DHT22;271;51.114;13.780;2023-06-10T01:46:36;16.10;14.00
573;DHT22;271;51.114;13.780;2023-06-10T01:49:26;16.10;12.90
573;DHT22;271;51.114;13.780;2023-06-10T01:52:15;16.10;10.40
573;DHT22;271;51.114;13.780;2023-06-10T01:55:03;16.10;10.00
573;DHT22;271;51.114;13.780;2023-06-10T01:57:52;16.10;6.30
573;DHT22;271;51.114;13.780;2023-06-10T02:00:43;15.90;4.10
573;DHT22;271;51.114;13.780;2023-06-10T02:03:31;15.90;7.70
573;DHT22;271;51.114;13.780;2023-06-10T02:06:19;15.80;4.90
573;DHT22;271;51.114;13.780;2023-06-10T02:09:07;15.70;9.10
573;DHT22;271;51.114;13.780;2023-06-10T02:11:54;15.80;14.20
573;DHT22;271;51.114;13.780;2023-06-10T02:14:43;15.70;11.90
573;DHT22;271;51.114;13.780;2023-06-10T02:17:31;15.70;11.50
573;DHT22;271;51.114;13.780;2023-06-10T02:20:19;15.60;12.80
573;DHT22;271;51.114;13.780;2023-06-10T02:23:07;15.60;12.50
573;DHT22;271;51.114;13.780;2023-06-10T02:25:55;15.60;14.00
573;DHT22;271;51.114;13.780;2023-06-10T02:28:42;15.60;18.70
573;DHT22;271;51.114;13.780;2023-06-10T02:31:32;15.50;15.60
573;DHT22;271;51.114;13.780;2023-06-10T02:34:21;15.50;13.70
573;DHT22;271;51.114;13.780;2023-06-10T02:37:09;15.50;14.10
573;DHT22;271;51.114;13.780;2023-06-10T02:39:57;15.40;14.90
573;DHT22;271;51.114;13.780;2023-06-10T02:42:44;15.40;14.10
573;DHT22;271;51.114;13.780;2023-06-10T02:45:32;15.40;16.90
573;DHT22;271;51.114;13.780;2023-06-10T02:48:23;15.40;15.40
573;DHT22;271;51.114;13.780;2023-06-10T02:51:11;15.30;13.70
573;DHT22;271;51.114;13.780;2023-06-10T02:53:58;15.30;13.80
573;DHT22;271;51.114;13.780;2023-06-10T02:56:46;15.20;10.00
573;DHT22;271;51.114;13.780;2023-06-10T02:59:34;15.30;15.90
573;DHT22;271;51.114;13.780;2023-06-10T03:02:21;15.20;13.10
573;DHT22;271;51.114;13.780;2023-06-10T03:05:16;15.20;12.50
573;DHT22;271;51.114;13.780;2023-06-10T03:08:04;15.20;11.30
573;DHT22;271;51.114;13.780;2023-06-10T03:10:51;15.20;13.10
573;DHT22;271;51.114;13.780;2023-06-10T04:48:28;17.30;1.00
573;DHT22;271;51.114;13.780;2023-06-10T04:56:16;17.60;1.00
573;DHT22;271;51.114;13.780;2023-06-10T04:59:06;17.90;1.00
573;DHT22;271;51.114;13.780;2023-06-10T06:14:20;28.40;1.00
573;DHT22;271;51.114;13.780;2023-06-10T06:17:08;27.30;1.00
573;DHT22;271;51.114;13.780;2023-06-10T06:19:56;26.90;1.00
573;DHT22;271;51.114;13.780;2023-06-10T06:22:44;26.60;1.00
573;DHT22;271;51.114;13.780;2023-06-10T06:25:33;26.10;1.00
573;DHT22;271;51.114;13.780;2023-06-10T06:28:30;25.80;1.00
573;DHT22;271;51.114;13.780;2023-06-10T06:31:44;25.40;1.00
573;DHT22;271;51.114;13.780;2023-06-10T06:35:14;25.10;1.00
573;DHT22;271;51.114;13.780;2023-06-10T06:37:44;24.90;1.00
573;DHT22;271;51.114;13.780;2023-06-10T06:40:31;24.90;1.00
573;DHT22;271;51.114;13.780;2023-06-10T06:43:19;24.90;1.00
573;DHT22;271;51.114;13.780;2023-06-10T06:46:07;25.00;1.00
573;DHT22;271;51.114;13.780;2023-06-10T06:48:56;25.60;1.00
573;DHT22;271;51.114;13.780;2023-06-10T06:51:43;26.30;1.00
573;DHT22;271;51.114;13.780;2023-06-10T06:54:31;26.80;1.00
573;DHT22;271;51.114;13.780;2023-06-10T06:57:19;26.70;1.00
573;DHT22;271;51.114;13.780;2023-06-10T07:00:13;27.00;1.00
573;DHT22;271;51.114;13.780;2023-06-10T07:03:01;27.90;1.00
573;DHT22;271;51.114;13.780;2023-06-10T07:05:50;28.90;1.00
573;DHT22;271;51.114;13.780;2023-06-10T07:08:38;30.00;1.00
573;DHT22;271;51.114;13.780;2023-06-10T07:11:25;30.70;1.00
573;DHT22;271;51.114;13.780;2023-06-10T07:14:13;31.40;1.00
573;DHT22;271;51.114;13.780;2023-06-10T07:17:02;32.10;1.00
573;DHT22;271;51.114;13.780;2023-06-10T07:20:04;32.50;1.00
573;DHT22;271;51.114;13.780;2023-06-10T07:22:55;32.00;1.00
573;DHT22;271;51.114;13.780;2023-06-10T07:25:46;31.40;1.00
573;DHT22;271;51.114;13.780;2023-06-10T07:28:40;30.90;1.00
573;DHT22;271;51.114;13.780;2023-06-10T07:31:35;30.70;1.00
573;DHT22;271;51.114;13.780;2023-06-10T07:34:23;30.40;1.00
573;DHT22;271;51.114;13.780;2023-06-10T07:37:12;29.30;1.00
573;DHT22;271;51.114;13.780;2023-06-10T07:40:01;28.90;1.00
573;DHT22;271;51.114;13.780;2023-06-10T07:42:49;28.50;1.00
573;DHT22;271;51.114;13.780;2023-06-10T07:45:43;27.90;1.00
573;DHT22;271;51.114;13.780;2023-06-10T07:48:40;27.90;1.00
573;DHT22;271;51.114;13.780;2023-06-10T07:51:33;27.70;1.00
573;DHT22;271;51.114;13.780;2023-06-10T07:54:24;27.10;1.00
573;DHT22;271;51.114;13.780;2023-06-10T07:57:13;28.00;1.00
573;DHT22;271;51.114;13.780;2023-06-10T08:00:03;29.10;1.00
573;DHT22;271;51.114;13.780;2023-06-10T08:02:51;30.90;1.00
573;DHT22;271;51.114;13.780;2023-06-10T08:05:39;31.70;1.00
573;DHT22;271;51.114;13.780;2023-06-10T08:08:27;32.00;1.00
573;DHT22;271;51.114;13.780;2023-06-10T08:11:15;31.60;1.00
573;DHT22;271;51.114;13.780;2023-06-10T08:14:04;30.90;1.00
573;DHT22;271;51.114;13.780;2023-06-10T08:16:51;31.00;1.00
573;DHT22;271;51.114;13.780;2023-06-10T08:19:39;30.40;1.00
573;DHT22;271;51.114;13.780;2023-06-10T08:22:27;30.00;1.00
573;DHT22;271;51.114;13.780;2023-06-10T08:25:16;29.80;1.00
573;DHT22;271;51.114;13.780;2023-06-10T08:28:04;30.30;1.00
573;DHT22;271;51.114;13.780;2023-06-10T08:30:53;30.50;1.00
573;DHT22;271;51.114;13.780;2023-06-10T08:33:41;30.30;1.00
573;DHT22;271;51.114;13.780;2023-06-10T08:36:29;30.60;1.00
573;DHT22;271;51.114;13.780;2023-06-10T08:39:17;30.00;1.00
573;DHT22;271;51.114;13.780;2023-06-10T08:42:11;29.90;1.00
573;DHT22;271;51.114;13.780;2023-06-10T08:45:01;28.80;1.00
573;DHT22;271;51.114;13.780;2023-06-10T08:47:51;28.30;1.00
573;DHT22;271;51.114;13.780;2023-06-10T08:50:41;27.70;1.00
573;DHT22;271;51.114;13.780;2023-06-10T08:53:30;27.00;1.00
573;DHT22;271;51.114;13.780;2023-06-10T08:56:20;26.80;1.00
573;DHT22;271;51.114;13.780;2023-06-10T08:59:09;26.90;1.00
573;DHT22;271;51.114;13.780;2023-06-10T09:02:02;27.20;1.00
573;DHT22;271;51.114;13.780;2023-06-10T09:05:21;27.30;1.00
573;DHT22;271;51.114;13.780;2023-06-10T09:08:12;27.30;1.00
573;DHT22;271;51.114;13.780;2023-06-10T09:11:21;27.70;1.00
573;DHT22;271;51.114;13.780;2023-06-10T09:14:09;28.50;1.00
573;DHT22;271;51.114;13.780;2023-06-10T09:17:00;28.80;1.00
573;DHT22;271;51.114;13.780;2023-06-10T09:19:49;28.80;1.00
573;DHT22;271;51.114;13.780;2023-06-10T09:22:54;29.10;1.00
573;DHT22;271;51.114;13.780;2023-06-10T09:25:43;28.80;1.00
573;DHT22;271;51.114;13.780;2023-06-10T09:28:32;28.00;1.00
573;DHT22;271;51.114;13.780;2023-06-10T09:31:21;27.90;1.00
573;DHT22;271;51.114;13.780;2023-06-10T09:34:10;28.10;1.00
573;DHT22;271;51.114;13.780;2023-06-10T09:36:58;27.70;1.00
573;DHT22;271;51.114;13.780;2023-06-10T09:40:01;27.70;1.00
573;DHT22;271;51.114;13.780;2023-06-10T09:42:53;27.50;1.00
573;DHT22;271;51.114;13.780;2023-06-10T09:45:41;27.30;1.00
573;DHT22;271;51.114;13.780;2023-06-10T09:48:29;27.30;1.00
573;DHT22;271;51.114;13.780;2023-06-10T09:51:17;27.30;1.00
573;DHT22;271;51.114;13.780;2023-06-10T09:54:05;27.70;1.00
573;DHT22;271;51.114;13.780;2023-06-10T09:56:54;28.30;1.00
573;DHT22;271;51.114;13.780;2023-06-10T09:59:43;28.40;1.00
573;DHT22;271;51.114;13.780;2023-06-10T10:02:32;28.60;1.00
573;DHT22;271;51.114;13.780;2023-06-10T10:05:21;28.40;1.00
573;DHT22;271;51.114;13.780;2023-06-10T10:08:09;28.50;1.00
573;DHT22;271;51.114;13.780;2023-06-10T10:10:57;28.60;1.00
573;DHT22;271;51.114;13.780;2023-06-10T10:13:48;28.90;1.00
573;DHT22;271;51.114;13.780;2023-06-10T10:16:37;28.70;1.00
573;DHT22;271;51.114;13.780;2023-06-10T10:19:28;27.90;1.00
573;DHT22;271;51.114;13.780;2023-06-10T10:22:20;27.60;1.00
573;DHT22;271;51.114;13.780;2023-06-10T10:25:16;27.90;1.00
573;DHT22;271;51.114;13.780;2023-06-10T10:28:08;28.50;1.00
573;DHT22;271;51.114;13.780;2023-06-10T10:31:04;28.90;1.00
573;DHT22;271;51.114;13.780;2023-06-10T10:33:58;28.90;1.00
573;DHT22;271;51.114;13.780;2023-06-10T10:36:46;28.30;1.00
573;DHT22;271;51.114;13.780;2023-06-10T10:39:34;28.00;1.00
573;DHT22;271;51.114;13.780;2023-06-10T10:42:23;28.00;1.00
573;DHT22;271;51.114;13.780;2023-06-10T10:45:12;28.20;1.00
573;DHT22;271;51.114;13.780;2023-06-10T10:48:07;28.50;1.00
573;DHT22;271;51.114;13.780;2023-06-10T10:50:58;29.00;1.00
573;DHT22;271;51.114;13.780;2023-06-10T10:54:09;28.90;1.00
573;DHT22;271;51.114;13.780;2023-06-10T10:57:14;28.80;1.00
573;DHT22;271;51.114;13.780;2023-06-10T11:00:03;29.20;1.00
573;DHT22;271;51.114;13.780;2023-06-10T11:02:51;28.90;1.00
573;DHT22;271;51.114;13.780;2023-06-10T11:05:44;27.90;1.00
573;DHT22;271;51.114;13.780;2023-06-10T11:08:47;28.00;1.00
573;DHT22;271;51.114;13.780;2023-06-10T11:11:49;28.50;1.00
573;DHT22;271;51.114;13.780;2023-06-10T11:14:37;28.60;1.00
573;DHT22;271;51.114;13.780;2023-06-10T11:18:11;28.10;1.00
573;DHT22;271;51.114;13.780;2023-06-10T11:21:02;28.00;1.00
573;DHT22;271;51.114;13.780;2023-06-10T11:23:51;28.20;1.00
573;DHT22;271;51.114;13.780;2023-06-10T11:26:43;28.50;1.00
573;DHT22;271;51.114;13.780;2023-06-10T11:29:31;28.80;1.00
573;DHT22;271;51.114;13.780;2023-06-10T11:32:19;28.60;1.00
573;DHT22;271;51.114;13.780;2023-06-10T11:35:07;28.50;1.00
573;DHT22;271;51.114;13.780;2023-06-10T11:37:57;28.30;1.00
573;DHT22;271;51.114;13.780;2023-06-10T11:40:47;28.10;1.00
573;DHT22;271;51.114;13.780;2023-06-10T11:43:36;28.20;1.00
573;DHT22;271;51.114;13.780;2023-06-10T11:46:24;28.00;1.00
573;DHT22;271;51.114;13.780;2023-06-10T11:49:14;27.70;1.00
573;DHT22;271;51.114;13.780;2023-06-10T11:52:04;27.70;1.00
573;DHT22;271;51.114;13.780;2023-06-10T11:54:55;27.70;1.00
573;DHT22;271;51.114;13.780;2023-06-10T11:57:42;27.70;1.00
573;DHT22;271;51.114;13.780;2023-06-10T12:00:30;27.50;1.00
573;DHT22;271;51.114;13.780;2023-06-10T12:03:20;27.20;1.00
573;DHT22;271;51.114;13.780;2023-06-10T12:06:09;27.10;1.00
573;DHT22;271;51.114;13.780;2023-06-10T12:08:58;27.20;1.00
573;DHT22;271;51.114;13.780;2023-06-10T12:11:50;27.20;1.00
573;DHT22;271;51.114;13.780;2023-06-10T12:14:54;27.20;1.00
573;DHT22;271;51.114;13.780;2023-06-10T12:17:43;27.30;1.00
573;DHT22;271;51.114;13.780;2023-06-10T12:20:33;27.00;1.00
573;DHT22;271;51.114;13.780;2023-06-10T12:23:24;26.90;1.00
573;DHT22;271;51.114;13.780;2023-06-10T12:26:14;27.00;1.00
573;DHT22;271;51.114;13.780;2023-06-10T12:29:13;27.10;1.00
573;DHT22;271;51.114;13.780;2023-06-10T12:32:04;27.10;1.00
573;DHT22;271;51.114;13.780;2023-06-10T12:35:03;26.90;1.00
573;DHT22;271;51.114;13.780;2023-06-10T12:37:55;26.90;1.00
573;DHT22;271;51.114;13.780;2023-06-10T12:40:44;26.90;1.00
573;DHT22;271;51.114;13.780;2023-06-10T12:43:32;27.00;1.00
573;DHT22;271;51.114;13.780;2023-06-10T12:46:22;27.20;1.00
573;DHT22;271;51.114;13.780;2023-06-10T12:49:19;27.30;1.00
573;DHT22;271;51.114;13.780;2023-06-10T12:52:07;27.30;1.00
573;DHT22;271;51.114;13.780;2023-06-10T12:54:55;27.20;1.00
573;DHT22;271;51.114;13.780;2023-06-10T12:57:50;27.10;1.00
573;DHT22;271;51.114;13.780;2023-06-10T13:00:38;27.10;1.00
573;DHT22;271;51.114;13.780;2023-06-10T13:03:39;27.20;1.00
573;DHT22;271;51.114;13.780;2023-06-10T13:06:38;27.20;1.00
573;DHT22;271;51.114;13.780;2023-06-10T13:09:29;27.10;1.00
573;DHT22;271;51.114;13.780;2023-06-10T13:12:22;27.10;1.00
573;DHT22;271;51.114;13.780;2023-06-10T13:15:18;27.10;1.00
573;DHT22;271;51.114;13.780;2023-06-10T13:18:06;27.00;1.00
573;DHT22;271;51.114;13.780;2023-06-10T13:20:59;27.10;1.00
573;DHT22;271;51.114;13.780;2023-06-10T13:23:47;26.90;1.00
573;DHT22;271;51.114;13.780;2023-06-10T13:26:35;26.70;1.00
573;DHT22;271;51.114;13.780;2023-06-10T13:29:22;26.70;1.00
573;DHT22;271;51.114;13.780;2023-06-10T13:32:10;26.70;1.00
573;DHT22;271;51.114;13.780;2023-06-10T13:34:58;26.90;1.00
573;DHT22;271;51.114;13.780;2023-06-10T13:37:47;26.90;1.00
573;DHT22;271;51.114;13.780;2023-06-10T13:40:35;26.70;1.00
573;DHT22;271;51.114;13.780;2023-06-10T13:43:26;26.70;1.00
573;DHT22;271;51.114;13.780;2023-06-10T13:46:16;26.70;1.00
573;DHT22;271;51.114;13.780;2023-06-10T13:49:04;26.80;1.00
573;DHT22;271;51.114;13.780;2023-06-10T13:51:52;26.70;1.00
573;DHT22;271;51.114;13.780;2023-06-10T13:54:41;26.80;1.00
573;DHT22;271;51.114;13.780;2023-06-10T13:57:29;26.70;1.00
573;DHT22;271;51.114;13.780;2023-06-10T14:00:17;26.70;1.00
573;DHT22;271;51.114;13.780;2023-06-10T14:03:05;26.70;1.00
573;DHT22;271;51.114;13.780;2023-06-10T14:05:53;26.70;1.00
573;DHT22;271;51.114;13.780;2023-06-10T14:08:41;26.70;1.00
573;DHT22;271;51.114;13.780;2023-06-10T14:11:31;26.60;1.00
573;DHT22;271;51.114;13.780;2023-06-10T14:14:19;26.60;1.00
573;DHT22;271;51.114;13.780;2023-06-10T14:17:07;26.60;1.00
573;DHT22;271;51.114;13.780;2023-06-10T14:19:54;26.80;1.00
573;DHT22;271;51.114;13.780;2023-06-10T14:22:42;26.80;1.00
573;DHT22;271;51.114;13.780;2023-06-10T14:25:30;26.80;1.00
573;DHT22;271;51.114;13.780;2023-06-10T14:28:20;26.70;1.00
573;DHT22;271;51.114;13.780;2023-06-10T14:31:34;26.70;1.00
573;DHT22;271;51.114;13.780;2023-06-10T14:34:33;26.70;1.00
573;DHT22;271;51.114;13.780;2023-06-10T14:37:21;26.90;1.00
573;DHT22;271;51.114;13.780;2023-06-10T14:40:09;26.80;1.00
573;DHT22;271;51.114;13.780;2023-06-10T14:42:59;26.90;1.00
573;DHT22;271;51.114;13.780;2023-06-10T14:45:53;26.90;1.00
573;DHT22;271;51.114;13.780;2023-06-10T14:48:42;26.80;1.00
573;DHT22;271;51.114;13.780;2023-06-10T14:51:30;26.80;1.00
573;DHT22;271;51.114;13.780;2023-06-10T14:54:21;26.70;1.00
573;DHT22;271;51.114;13.780;2023-06-10T14:57:11;26.70;1.00
573;DHT22;271;51.114;13.780;2023-06-10T15:00:11;26.60;1.00
573;DHT22;271;51.114;13.780;2023-06-10T15:03:07;26.70;1.00
573;DHT22;271;51.114;13.780;2023-06-10T15:05:55;26.60;1.00
573;DHT22;271;51.114;13.780;2023-06-10T15:08:43;26.70;1.00
573;DHT22;271;51.114;13.780;2023-06-10T15:11:33;26.60;1.00
573;DHT22;271;51.114;13.780;2023-06-10T15:14:20;26.60;1.00
573;DHT22;271;51.114;13.780;2023-06-10T15:17:11;26.50;1.00
573;DHT22;271;51.114;13.780;2023-06-10T15:20:01;26.50;1.00
573;DHT22;271;51.114;13.780;2023-06-10T15:22:49;26.60;1.00
573;DHT22;271;51.114;13.780;2023-06-10T15:25:36;26.60;1.00
573;DHT22;271;51.114;13.780;2023-06-10T15:28:27;26.70;1.00
573;DHT22;271;51.114;13.780;2023-06-10T15:31:14;26.60;1.00
573;DHT22;271;51.114;13.780;2023-06-10T15:34:02;26.60;1.00
573;DHT22;271;51.114;13.780;2023-06-10T15:36:51;26.50;1.00
573;DHT22;271;51.114;13.780;2023-06-10T15:39:39;26.50;1.00
573;DHT22;271;51.114;13.780;2023-06-10T15:42:27;26.50;1.00
573;DHT22;271;51.114;13.780;2023-06-10T15:45:14;26.40;1.00
573;DHT22;271;51.114;13.780;2023-06-10T15:48:03;26.40;1.00
573;DHT22;271;51.114;13.780;2023-06-10T15:50:50;26.40;1.00
573;DHT22;271;51.114;13.780;2023-06-10T15:53:39;26.40;1.00
573;DHT22;271;51.114;13.780;2023-06-10T15:56:27;26.30;1.00
573;DHT22;271;51.114;13.780;2023-06-10T15:59:15;26.30;1.00
573;DHT22;271;51.114;13.780;2023-06-10T16:02:03;26.30;1.00
573;DHT22;271;51.114;13.780;2023-06-10T16:04:51;26.30;1.00
573;DHT22;271;51.114;13.780;2023-06-10T16:07:38;26.30;1.00
573;DHT22;271;51.114;13.780;2023-06-10T16:10:28;26.30;1.00
573;DHT22;271;51.114;13.780;2023-06-10T16:13:16;26.30;1.00
573;DHT22;271;51.114;13.780;2023-06-10T16:16:04;26.30;1.00
573;DHT22;271;51.114;13.780;2023-06-10T16:18:52;26.30;1.00
573;DHT22;271;51.114;13.780;2023-06-10T16:21:40;26.20;1.00
573;DHT22;271;51.114;13.780;2023-06-10T16:24:28;26.10;1.00
573;DHT22;271;51.114;13.780;2023-06-10T16:27:17;26.10;1.00
573;DHT22;271;51.114;13.780;2023-06-10T16:30:06;26.10;1.00
573;DHT22;271;51.114;13.780;2023-06-10T16:32:54;26.20;1.00
573;DHT22;271;51.114;13.780;2023-06-10T16:35:42;26.30;1.00
573;DHT22;271;51.114;13.780;2023-06-10T16:38:30;26.40;1.00
573;DHT22;271;51.114;13.780;2023-06-10T16:41:17;26.40;1.00
573;DHT22;271;51.114;13.780;2023-06-10T16:44:06;26.40;1.00
573;DHT22;271;51.114;13.780;2023-06-10T16:46:54;26.30;1.00
573;DHT22;271;51.114;13.780;2023-06-10T16:49:44;26.20;1.00
573;DHT22;271;51.114;13.780;2023-06-10T16:52:32;26.10;1.00
573;DHT22;271;51.114;13.780;2023-06-10T16:55:20;26.00;1.00
573;DHT22;271;51.114;13.780;2023-06-10T16:58:08;25.90;1.00
573;DHT22;271;51.114;13.780;2023-06-10T17:01:03;25.80;1.00
573;DHT22;271;51.114;13.780;2023-06-10T17:03:51;25.80;1.00
573;DHT22;271;51.114;13.780;2023-06-10T17:06:39;25.70;1.00
573;DHT22;271;51.114;13.780;2023-06-10T17:09:27;25.60;1.00
573;DHT22;271;51.114;13.780;2023-06-10T17:12:14;25.60;1.00
573;DHT22;271;51.114;13.780;2023-06-10T17:15:02;25.50;1.00
573;DHT22;271;51.114;13.780;2023-06-10T17:17:52;25.50;1.00
573;DHT22;271;51.114;13.780;2023-06-10T17:20:40;25.40;1.00
573;DHT22;271;51.114;13.780;2023-06-10T17:23:27;25.40;1.00
573;DHT22;271;51.114;13.780;2023-06-10T17:26:15;25.40;1.00
573;DHT22;271;51.114;13.780;2023-06-10T17:29:03;25.20;1.00
573;DHT22;271;51.114;13.780;2023-06-10T17:31:50;25.00;1.00
573;DHT22;271;51.114;13.780;2023-06-10T17:34:40;24.90;1.00
573;DHT22;271;51.114;13.780;2023-06-10T17:37:28;24.80;1.00
573;DHT22;271;51.114;13.780;2023-06-10T17:40:16;24.70;1.00
573;DHT22;271;51.114;13.780;2023-06-10T17:43:04;24.60;1.00
573;DHT22;271;51.114;13.780;2023-06-10T17:45:52;24.50;1.00
573;DHT22;271;51.114;13.780;2023-06-10T17:48:40;24.40;1.00
573;DHT22;271;51.114;13.780;2023-06-10T17:51:29;24.30;1.00
573;DHT22;271;51.114;13.780;2023-06-10T17:54:16;24.20;1.00
573;DHT22;271;51.114;13.780;2023-06-10T17:57:04;24.20;1.00
573;DHT22;271;51.114;13.780;2023-06-10T17:59:52;24.10;1.00
573;DHT22;271;51.114;13.780;2023-06-10T18:02:40;24.10;1.00
573;DHT22;271;51.114;13.780;2023-06-10T18:05:28;24.00;1.00
573;DHT22;271;51.114;13.780;2023-06-10T18:08:17;24.00;1.00
573;DHT22;271;51.114;13.780;2023-06-10T18:11:05;23.90;1.00
573;DHT22;271;51.114;13.780;2023-06-10T18:13:53;23.80;1.00
573;DHT22;271;51.114;13.780;2023-06-10T18:16:41;23.70;1.00
573;DHT22;271;51.114;13.780;2023-06-10T18:19:28;23.60;1.00
573;DHT22;271;51.114;13.780;2023-06-10T18:22:16;23.60;1.00
573;DHT22;271;51.114;13.780;2023-06-10T18:25:06;23.50;1.00
573;DHT22;271;51.114;13.780;2023-06-10T18:27:54;23.40;1.00
573;DHT22;271;51.114;13.780;2023-06-10T18:30:41;23.30;1.00
573;DHT22;271;51.114;13.780;2023-06-10T18:33:29;23.20;1.00
573;DHT22;271;51.114;13.780;2023-06-10T18:36:18;23.20;1.00
573;DHT22;271;51.114;13.780;2023-06-10T18:39:05;23.00;1.00
573;DHT22;271;51.114;13.780;2023-06-10T18:41:55;22.90;1.00
573;DHT22;271;51.114;13.780;2023-06-10T18:44:43;22.80;1.00
573;DHT22;271;51.114;13.780;2023-06-10T18:47:30;22.60;1.00
573;DHT22;271;51.114;13.780;2023-06-10T18:50:18;22.40;1.00
573;DHT22;271;51.114;13.780;2023-06-10T18:53:06;22.40;1.00
573;DHT22;271;51.114;13.780;2023-06-10T18:55:54;22.40;1.00
573;DHT22;271;51.114;13.780;2023-06-10T18:58:43;22.20;1.00
573;DHT22;271;51.114;13.780;2023-06-10T19:01:33;22.10;1.00
573;DHT22;271;51.114;13.780;2023-06-10T19:04:20;22.10;1.00
573;DHT22;271;51.114;13.780;2023-06-10T19:07:08;22.00;1.00
573;DHT22;271;51.114;13.780;2023-06-10T19:09:56;21.90;1.00
573;DHT22;271;51.114;13.780;2023-06-10T19:12:44;21.80;1.00
573;DHT22;271;51.114;13.780;2023-06-10T19:15:33;21.60;1.00
573;DHT22;271;51.114;13.780;2023-06-10T19:18:21;21.50;1.00
573;DHT22;271;51.114;13.780;2023-06-10T19:21:09;21.40;1.00
573;DHT22;271;51.114;13.780;2023-06-10T19:23:57;21.30;1.00
573;DHT22;271;51.114;13.780;2023-06-10T19:26:46;21.20;1.00
573;DHT22;271;51.114;13.780;2023-06-10T19:29:33;21.20;1.00
573;DHT22;271;51.114;13.780;2023-06-10T19:32:22;21.10;1.00
573;DHT22;271;51.114;13.780;2023-06-10T19:35:10;21.10;1.00
573;DHT22;271;51.114;13.780;2023-06-10T19:37:58;21.10;1.00
573;DHT22;271;51.114;13.780;2023-06-10T19:40:46;21.10;1.00
573;DHT22;271;51.114;13.780;2023-06-10T19:43:33;21.10;1.00
573;DHT22;271;51.114;13.780;2023-06-10T19:46:21;21.00;1.00
573;DHT22;271;51.114;13.780;2023-06-10T19:49:10;20.90;1.00
573;DHT22;271;51.114;13.780;2023-06-10T19:51:58;20.90;1.00
573;DHT22;271;51.114;13.780;2023-06-10T19:54:47;20.90;1.00
573;DHT22;271;51.114;13.780;2023-06-10T19:57:35;20.80;1.00
573;DHT22;271;51.114;13.780;2023-06-10T20:00:24;20.70;1.00
573;DHT22;271;51.114;13.780;2023-06-10T20:03:11;20.70;1.00
573;DHT22;271;51.114;13.780;2023-06-10T20:06:00;20.70;1.00
573;DHT22;271;51.114;13.780;2023-06-10T20:08:49;20.60;1.00
573;DHT22;271;51.114;13.780;2023-06-10T20:11:37;20.60;1.00
573;DHT22;271;51.114;13.780;2023-06-10T20:14:24;20.30;1.00
573;DHT22;271;51.114;13.780;2023-06-10T20:17:12;20.30;1.00
573;DHT22;271;51.114;13.780;2023-06-10T20:20:00;20.20;1.00
573;DHT22;271;51.114;13.780;2023-06-10T20:22:49;20.10;1.00
573;DHT22;271;51.114;13.780;2023-06-10T20:25:37;20.00;1.00
573;DHT22;271;51.114;13.780;2023-06-10T20:28:25;19.90;1.00
573;DHT22;271;51.114;13.780;2023-06-10T20:31:13;19.80;1.00
573;DHT22;271;51.114;13.780;2023-06-10T20:34:01;19.70;1.00
573;DHT22;271;51.114;13.780;2023-06-10T20:36:48;19.70;1.00
573;DHT22;271;51.114;13.780;2023-06-10T20:39:38;19.70;1.00
573;DHT22;271;51.114;13.780;2023-06-10T20:42:25;19.80;1.00
573;DHT22;271;51.114;13.780;2023-06-10T20:45:13;19.80;1.00
573;DHT22;271;51.114;13.780;2023-06-10T20:48:01;19.90;1.00
573;DHT22;271;51.114;13.780;2023-06-10T20:50:49;19.80;1.00
573;DHT22;271;51.114;13.780;2023-06-10T20:53:37;19.90;1.00
573;DHT22;271;51.114;13.780;2023-06-10T20:56:26;19.80;1.00
573;DHT22;271;51.114;13.780;2023-06-10T20:59:14;19.90;1.00
573;DHT22;271;51.114;13.780;2023-06-10T21:02:02;20.00;1.00
573;DHT22;271;51.114;13.780;2023-06-10T21:04:50;20.00;1.00
573;DHT22;271;51.114;13.780;2023-06-10T21:07:38;20.10;1.00
573;DHT22;271;51.114;13.780;2023-06-10T21:10:26;20.20;1.00
573;DHT22;271;51.114;13.780;2023-06-10T21:13:15;20.20;1.00
573;DHT22;271;51.114;13.780;2023-06-10T21:16:03;20.30;1.00
573;DHT22;271;51.114;13.780;2023-06-10T21:18:51;20.30;1.00
573;DHT22;271;51.114;13.780;2023-06-10T21:21:38;20.30;1.00
573;DHT22;271;51.114;13.780;2023-06-10T21:24:26;20.40;1.00
573;DHT22;271;51.114;13.780;2023-06-10T21:27:14;20.40;1.00
573;DHT22;271;51.114;13.780;2023-06-10T21:30:04;20.40;1.00
573;DHT22;271;51.114;13.780;2023-06-10T21:32:52;20.40;1.00
573;DHT22;271;51.114;13.780;2023-06-10T21:35:40;20.40;1.00
573;DHT22;271;51.114;13.780;2023-06-10T21:38:27;20.40;1.00
573;DHT22;271;51.114;13.780;2023-06-10T21:41:15;20.40;1.00
573;DHT22;271;51.114;13.780;2023-06-10T21:44:03;20.40;1.00
573;DHT22;271;51.114;13.780;2023-06-10T21:46:53;20.40;1.00
573;DHT22;271;51.114;13.780;2023-06-10T21:49:40;20.40;1.00
573;DHT22;271;51.114;13.780;2023-06-10T21:52:28;20.40;1.00
573;DHT22;271;51.114;13.780;2023-06-10T21:55:16;20.30;1.00
573;DHT22;271;51.114;13.780;2023-06-10T21:58:04;20.30;1.00
573;DHT22;271;51.114;13.780;2023-06-10T22:00:52;20.30;1.00
573;DHT22;271;51.114;13.780;2023-06-10T22:03:41;20.30;1.00
573;DHT22;271;51.114;13.780;2023-06-10T22:06:28;20.30;1.00
573;DHT22;271;51.114;13.780;2023-06-10T22:09:18;20.30;1.00
573;DHT22;271;51.114;13.780;2023-06-10T22:12:06;20.20;1.00
573;DHT22;271;51.114;13.780;2023-06-10T22:14:54;20.20;1.00
573;DHT22;271;51.114;13.780;2023-06-10T22:17:42;20.10;1.00
573;DHT22;271;51.114;13.780;2023-06-10T22:20:31;20.10;1.00
573;DHT22;271;51.114;13.780;2023-06-10T22:23:19;20.10;1.00
573;DHT22;271;51.114;13.780;2023-06-10T22:26:07;20.10;1.00
573;DHT22;271;51.114;13.780;2023-06-10T22:28:55;20.00;1.00
573;DHT22;271;51.114;13.780;2023-06-10T22:31:43;20.00;1.00